createdAt,value
2023-02-14T00:00:48.307Z,96394.91
2023-02-14T00:03:15.052Z,96406.84
2023-02-14T00:05:41.691Z,96385.31
2023-02-14T00:08:08.376Z,96396.41
2023-02-14T00:10:35.310Z,96400.28
2023-02-14T00:13:01.901Z,96388.31
2023-02-14T00:15:28.660Z,96394.47
2023-02-14T00:17:59.656Z,96400.19
2023-02-14T00:20:27.299Z,96396.59
2023-02-14T00:22:53.931Z,96396.72
2023-02-14T00:25:20.583Z,96384.16
2023-02-14T00:27:47.255Z,96393.38
2023-02-14T00:30:14.364Z,96385.41
2023-02-14T00:32:42.330Z,96389.50
2023-02-14T00:35:10.109Z,96373.25
2023-02-14T00:37:36.885Z,96382.56
2023-02-14T00:40:05.301Z,96391.88
2023-02-14T00:42:31.972Z,96394.19
2023-02-14T00:44:58.716Z,96390.03
2023-02-14T00:47:25.379Z,96381.91
2023-02-14T00:49:52.088Z,96395.84
2023-02-14T00:52:18.769Z,96384.25
2023-02-14T00:54:45.481Z,96383.13
2023-02-14T00:57:12.114Z,96383.16
2023-02-14T00:59:38.817Z,96378.84
2023-02-14T01:02:05.448Z,96376.09
2023-02-14T01:04:32.187Z,96378.84
2023-02-14T01:06:58.729Z,96368.66
2023-02-14T01:09:25.374Z,96367.94
2023-02-14T01:11:52.055Z,96349.34
2023-02-14T01:14:18.661Z,96367.91
2023-02-14T01:16:45.341Z,96360.22
2023-02-14T01:19:12.018Z,96367.13
2023-02-14T01:21:38.620Z,96346.28
2023-02-14T01:24:07.788Z,96354.34
2023-02-14T01:26:35.456Z,96344.88
2023-02-14T01:29:03.759Z,96345.59
2023-02-14T01:31:32.943Z,96362.63
2023-02-14T01:34:00.282Z,96353.81
2023-02-14T01:36:33.670Z,96326.38
2023-02-14T01:39:02.521Z,96341.34
2023-02-14T01:41:31.887Z,96331.84
2023-02-14T01:44:00.044Z,96340.84
2023-02-14T01:46:29.354Z,96313.78
2023-02-14T01:49:03.444Z,96322.78
2023-02-14T01:51:31.301Z,96327.03
2023-02-14T01:53:59.771Z,96323.97
2023-02-14T01:56:36.792Z,96308.50
2023-02-14T01:59:06.344Z,96323.66
2023-02-14T02:01:33.072Z,96318.59
2023-02-14T02:04:09.100Z,96318.22
2023-02-14T02:06:46.499Z,96316.72
2023-02-14T02:09:26.408Z,96335.41
2023-02-14T02:11:53.020Z,96313.91
2023-02-14T02:14:22.845Z,96312.44
2023-02-14T02:17:07.643Z,96314.75
2023-02-14T02:20:11.607Z,96325.84
2023-02-14T02:23:19.933Z,96324.72
2023-02-14T02:26:21.466Z,96306.97
2023-02-14T02:29:03.340Z,96300.44
2023-02-14T02:31:42.333Z,96304.38
2023-02-14T02:34:37.281Z,96309.00
2023-02-14T02:37:25.651Z,96278.88
2023-02-14T02:40:11.166Z,96299.00
2023-02-14T02:42:58.158Z,96280.53
2023-02-14T02:45:57.832Z,96258.44
2023-02-14T02:48:40.774Z,96281.16
2023-02-14T02:51:29.538Z,96295.41
2023-02-14T02:54:07.401Z,96290.28
2023-02-14T02:56:55.970Z,96293.38
2023-02-14T02:59:30.485Z,96296.41
2023-02-14T03:02:56.076Z,96300.28
2023-02-14T03:05:23.366Z,96303.22
2023-02-14T03:07:50.091Z,96290.53
2023-02-14T03:10:21.439Z,96299.78
2023-02-14T03:12:56.807Z,96302.09
2023-02-14T03:15:26.362Z,96293.31
2023-02-14T03:18:39.788Z,96284.06
2023-02-14T03:21:51.616Z,96285.56
2023-02-14T03:25:00.204Z,96275.88
2023-02-14T03:27:38.849Z,96260.47
2023-02-14T03:30:12.357Z,96245.34
2023-02-14T03:32:58.271Z,96253.00
2023-02-14T03:35:32.202Z,96264.56
2023-02-14T03:38:11.495Z,96269.13
2023-02-14T03:41:05.721Z,96274.97
2023-02-14T03:43:37.416Z,96281.16
2023-02-14T03:46:13.808Z,96258.41
2023-02-14T03:48:42.102Z,96270.03
2023-02-14T03:51:12.190Z,96239.13
2023-02-14T03:53:43.853Z,96260.75
2023-02-14T03:56:22.541Z,96250.38
2023-02-14T03:58:53.853Z,96223.38
2023-02-14T04:01:31.085Z,96252.72
2023-02-14T04:03:59.624Z,96254.25
2023-02-14T04:06:26.997Z,96237.72
2023-02-14T04:08:53.668Z,96246.50
2023-02-14T04:11:20.651Z,96243.06
2023-02-14T04:13:47.769Z,96225.22
2023-02-14T04:16:14.562Z,96241.19
2023-02-14T04:18:59.972Z,96238.81
2023-02-14T04:21:26.555Z,96233.06
2023-02-14T04:23:53.143Z,96233.50
2023-02-14T04:26:19.742Z,96230.00
2023-02-14T04:28:46.409Z,96225.66
2023-02-14T04:31:13.181Z,96241.53
2023-02-14T04:33:39.850Z,96240.41
2023-02-14T04:36:06.862Z,96230.88
2023-02-14T04:38:33.819Z,96230.91
2023-02-14T04:41:01.057Z,96219.75
2023-02-14T04:43:27.934Z,96218.63
2023-02-14T04:45:54.656Z,96208.97
2023-02-14T04:48:21.328Z,96200.81
2023-02-14T04:50:53.985Z,96174.56
2023-02-14T04:53:21.612Z,96190.72
2023-02-14T04:55:51.520Z,96212.75
2023-02-14T04:58:18.430Z,96198.13
2023-02-14T05:00:45.134Z,96192.69
2023-02-14T05:03:11.813Z,96197.22
2023-02-14T05:05:38.453Z,96205.09
2023-02-14T05:08:05.176Z,96211.66
2023-02-14T05:10:31.770Z,96198.19
2023-02-14T05:12:58.357Z,96196.69
2023-02-14T05:15:24.967Z,96223.72
2023-02-14T05:17:51.698Z,96218.41
2023-02-14T05:20:18.418Z,96212.13
2023-02-14T05:22:44.992Z,96201.88
2023-02-14T05:25:11.632Z,96213.75
2023-02-14T05:27:38.270Z,96203.75
2023-02-14T05:30:05.809Z,96201.22
2023-02-14T05:32:32.440Z,96169.91
2023-02-14T05:35:01.029Z,96209.19
2023-02-14T05:37:27.849Z,96209.50
2023-02-14T05:39:54.646Z,96212.97
2023-02-14T05:42:21.361Z,96215.34
2023-02-14T05:44:48.777Z,96199.72
2023-02-14T05:47:15.377Z,96207.09
2023-02-14T05:49:42.133Z,96206.06
2023-02-14T05:52:08.746Z,96197.88
2023-02-14T05:54:35.603Z,96199.38
2023-02-14T05:57:02.215Z,96200.31
2023-02-14T05:59:28.798Z,96186.25
2023-02-14T06:01:55.636Z,96178.13
2023-02-14T06:04:22.375Z,96199.22
2023-02-14T06:06:48.931Z,96207.50
2023-02-14T06:09:15.584Z,96200.69
2023-02-14T06:11:42.270Z,96218.53
2023-02-14T06:14:08.871Z,96213.91
2023-02-14T06:16:35.579Z,96220.00
2023-02-14T06:19:02.292Z,96217.25
2023-02-14T06:21:28.958Z,96205.66
2023-02-14T06:23:55.574Z,96219.44
2023-02-14T06:26:22.169Z,96196.00
2023-02-14T06:28:53.533Z,96221.53
2023-02-14T06:31:20.245Z,96228.81
2023-02-14T06:33:46.933Z,96227.75
2023-02-14T06:36:13.634Z,96198.09
2023-02-14T06:38:41.287Z,96207.06
2023-02-14T06:41:09.497Z,96221.28
2023-02-14T06:43:36.310Z,96218.19
2023-02-14T06:46:03.844Z,96219.00
2023-02-14T06:48:30.542Z,96222.09
2023-02-14T06:50:57.437Z,96211.75
2023-02-14T06:53:24.470Z,96212.19
2023-02-14T06:55:51.174Z,96213.34
2023-02-14T06:58:17.874Z,96207.63
2023-02-14T07:00:44.481Z,96206.81
2023-02-14T07:03:11.151Z,96208.38
2023-02-14T07:05:38.020Z,96187.94
2023-02-14T07:08:07.210Z,96196.78
2023-02-14T07:10:35.372Z,96190.63
2023-02-14T07:13:02.203Z,96176.81
2023-02-14T07:15:29.009Z,96187.22
2023-02-14T07:17:55.695Z,96173.31
2023-02-14T07:20:22.632Z,96176.81
2023-02-14T07:22:49.386Z,96185.19
2023-02-14T07:25:16.051Z,96165.22
2023-02-14T07:27:43.307Z,96193.34
2023-02-14T07:30:11.291Z,96203.72
2023-02-14T07:32:39.267Z,96191.41
2023-02-14T07:35:08.458Z,96207.25
2023-02-14T07:37:35.650Z,96206.03
2023-02-14T07:40:02.491Z,96196.88
2023-02-14T07:42:29.115Z,96204.56
2023-02-14T07:44:55.722Z,96200.28
2023-02-14T07:47:22.316Z,96203.31
2023-02-14T07:49:48.896Z,96198.69
2023-02-14T07:52:15.522Z,96188.66
2023-02-14T07:54:42.282Z,96171.34
2023-02-14T07:57:09.269Z,96223.38
2023-02-14T07:59:35.830Z,96217.59
2023-02-14T08:02:02.448Z,96220.56
2023-02-14T08:04:29.302Z,96212.22
2023-02-14T08:06:55.952Z,96220.66
2023-02-14T08:09:25.816Z,96237.22
2023-02-14T08:12:12.565Z,96243.38
2023-02-14T08:14:39.280Z,96243.38
2023-02-14T08:17:07.484Z,96241.03
2023-02-14T08:19:34.541Z,96229.13
2023-02-14T08:22:01.199Z,96224.47
2023-02-14T08:24:28.249Z,96233.72
2023-02-14T08:26:55.342Z,96245.31
2023-02-14T08:29:21.939Z,96236.03
2023-02-14T08:31:48.928Z,96212.53
2023-02-14T08:34:16.786Z,96232.19
2023-02-14T08:36:43.884Z,96209.03
2023-02-14T08:39:10.837Z,96231.38
2023-02-14T08:41:37.595Z,96217.16
2023-02-14T08:44:04.311Z,96213.22
2023-02-14T08:46:31.093Z,96208.09
2023-02-14T08:48:57.739Z,96218.59
2023-02-14T08:51:25.889Z,96240.22
2023-02-14T08:53:53.249Z,96231.81
2023-02-14T08:56:22.686Z,96234.94
2023-02-14T08:58:52.573Z,96218.75
2023-02-14T09:01:19.430Z,96199.41
2023-02-14T09:03:46.117Z,96232.91
2023-02-14T09:06:17.288Z,96227.19
2023-02-14T09:08:45.080Z,96202.94
2023-02-14T09:11:14.854Z,96233.25
2023-02-14T09:13:45.330Z,96231.75
2023-02-14T09:16:13.194Z,96221.81
2023-02-14T09:18:40.716Z,96200.63
2023-02-14T09:21:10.309Z,96223.00
2023-02-14T09:23:37.820Z,96206.91
2023-02-14T09:26:07.802Z,96197.97
2023-02-14T09:28:35.516Z,96214.94
2023-02-14T09:31:11.218Z,96224.88
2023-02-14T09:33:56.764Z,96223.69
2023-02-14T09:36:23.422Z,96227.56
2023-02-14T09:38:50.069Z,96212.88
2023-02-14T09:41:25.445Z,96204.84
2023-02-14T09:43:59.296Z,96221.41
2023-02-14T09:46:27.648Z,96217.25
2023-02-14T09:48:55.167Z,96226.50
2023-02-14T09:51:26.466Z,96202.25
2023-02-14T09:54:02.430Z,96201.06
2023-02-14T09:56:52.102Z,96202.22
2023-02-14T09:59:29.461Z,96203.31
2023-02-14T10:02:16.144Z,96210.19
2023-02-14T10:05:24.015Z,96207.44
2023-02-14T10:08:21.830Z,96196.63
2023-02-14T10:11:00.106Z,96215.50
2023-02-14T10:13:33.579Z,96201.72
2023-02-14T10:16:09.455Z,96197.88
2023-02-14T10:18:45.103Z,96174.00
2023-02-14T10:21:22.021Z,96171.69
2023-02-14T10:24:02.127Z,96172.09
2023-02-14T10:26:38.240Z,96195.25
2023-02-14T10:29:11.135Z,96193.75
2023-02-14T10:31:44.955Z,96194.81
2023-02-14T10:34:25.928Z,96131.09
2023-02-14T10:37:10.956Z,96182.88
2023-02-14T10:39:55.433Z,96182.50
2023-02-14T10:43:01.430Z,96114.47
2023-02-14T10:45:42.627Z,96190.16
2023-02-14T10:48:28.828Z,96172.06
2023-02-14T10:51:04.751Z,96191.25
2023-02-14T10:53:51.133Z,96188.56
2023-02-14T10:56:23.722Z,96185.53
2023-02-14T10:58:52.529Z,96147.09
2023-02-14T11:01:20.024Z,96176.75
2023-02-14T11:03:58.594Z,96174.06
2023-02-14T11:06:25.764Z,96150.19
2023-02-14T11:08:52.447Z,96161.41
2023-02-14T11:11:24.448Z,96151.03
2023-02-14T11:13:52.044Z,96159.44
2023-02-14T11:16:39.977Z,96156.78
2023-02-14T11:19:20.785Z,96162.22
2023-02-14T11:21:50.704Z,96161.06
2023-02-14T11:24:32.505Z,96148.38
2023-02-14T11:27:19.241Z,96142.25
2023-02-14T11:29:52.618Z,96130.72
2023-02-14T11:32:23.502Z,96135.00
2023-02-14T11:35:04.056Z,96138.44
2023-02-14T11:37:44.567Z,96110.34
2023-02-14T11:40:31.986Z,96142.69
2023-02-14T11:43:13.813Z,96141.56
2023-02-14T11:45:42.259Z,96140.78
2023-02-14T11:48:37.085Z,96132.72
2023-02-14T11:51:16.454Z,96131.94
2023-02-14T11:53:49.951Z,96126.56
2023-02-14T11:56:20.533Z,96093.06
2023-02-14T11:58:57.894Z,96068.41
2023-02-14T12:01:36.544Z,95996.88
2023-02-14T12:04:14.405Z,96080.41
2023-02-14T12:06:41.207Z,96078.81
2023-02-14T12:09:22.771Z,96108.88
2023-02-14T12:11:58.974Z,96106.94
2023-02-14T12:14:29.776Z,96096.19
2023-02-14T12:17:18.952Z,96082.72
2023-02-14T12:20:08.902Z,96024.22
2023-02-14T12:23:00.511Z,96112.38
2023-02-14T12:25:37.081Z,96104.28
2023-02-14T12:28:12.308Z,96081.94
2023-02-14T12:30:39.015Z,96081.94
2023-02-14T12:33:26.102Z,96083.09
2023-02-14T12:35:52.644Z,96094.28
2023-02-14T12:39:02.655Z,96076.56
2023-02-14T12:41:41.079Z,96091.56
2023-02-14T12:44:16.668Z,95962.66
2023-02-14T12:47:05.046Z,96084.63
2023-02-14T12:50:16.919Z,96088.50
2023-02-14T12:52:58.756Z,96080.41
2023-02-14T12:58:42.196Z,96085.78
2023-02-14T13:01:28.437Z,96083.47
2023-02-14T13:04:37.749Z,96080.38
2023-02-14T13:07:45.557Z,96004.59
2023-02-14T13:11:00.778Z,96084.66
2023-02-14T13:14:08.750Z,96088.50
2023-02-14T13:16:50.861Z,95992.28
2023-02-14T13:19:41.626Z,96080.41
2023-02-14T13:22:13.847Z,96078.47
2023-02-14T13:24:47.869Z,96066.19
2023-02-14T13:27:22.283Z,96037.31
2023-02-14T13:29:54.570Z,96064.22
2023-02-14T13:32:22.648Z,96077.34
2023-02-14T13:34:50.466Z,96068.09
2023-02-14T13:37:20.563Z,96044.63
2023-02-14T13:39:53.696Z,96062.72
2023-02-14T13:42:48.009Z,96058.84
2023-02-14T13:45:30.691Z,96058.47
2023-02-14T13:48:14.035Z,96029.63
2023-02-14T13:50:55.997Z,96061.16
2023-02-14T13:53:42.489Z,96061.91
2023-02-14T13:56:12.225Z,96066.56
2023-02-14T13:59:06.091Z,96067.72
2023-02-14T14:01:40.650Z,96065.78
2023-02-14T14:04:28.899Z,96074.66
2023-02-14T14:07:22.368Z,96055.78
2023-02-14T14:09:48.965Z,96080.41
2023-02-14T14:12:27.533Z,96078.09
2023-02-14T14:15:06.505Z,96078.47
2023-02-14T14:17:35.876Z,96076.94
2023-02-14T14:20:24.196Z,96069.63
2023-02-14T14:22:54.450Z,96077.72
2023-02-14T14:25:35.574Z,96064.25
2023-02-14T14:28:10.178Z,96006.91
2023-02-14T14:30:38.487Z,96054.63
2023-02-14T14:33:26.847Z,96065.41
2023-02-14T14:35:55.352Z,96062.31
2023-02-14T14:38:22.704Z,96022.28
2023-02-14T14:40:50.991Z,95973.06
2023-02-14T14:43:24.245Z,96053.84
2023-02-14T14:45:53.039Z,96015.00
2023-02-14T14:48:40.185Z,95973.06
2023-02-14T14:51:08.981Z,96053.84
2023-02-14T14:53:47.060Z,96042.31
2023-02-14T14:56:19.714Z,96006.16
2023-02-14T14:58:47.023Z,96045.38
2023-02-14T15:01:32.375Z,96060.03
2023-02-14T15:04:16.465Z,96034.59
2023-02-14T15:06:43.166Z,96033.84
2023-02-14T15:09:36.089Z,95973.44
2023-02-14T15:12:21.891Z,95953.03
2023-02-14T15:14:54.797Z,96066.53
2023-02-14T15:17:33.088Z,96063.47
2023-02-14T15:20:08.596Z,96049.25
2023-02-14T15:22:35.268Z,96061.94
2023-02-14T15:25:09.768Z,96063.88
2023-02-14T15:27:41.199Z,96062.31
2023-02-14T15:30:20.138Z,96073.50
2023-02-14T15:32:49.425Z,96018.44
2023-02-14T15:35:29.123Z,95997.69
2023-02-14T15:38:00.806Z,96041.53
2023-02-14T15:40:33.500Z,96043.84
2023-02-14T15:43:32.013Z,96063.88
2023-02-14T15:46:27.907Z,96064.22
2023-02-14T15:48:58.505Z,96075.38
2023-02-14T15:51:29.821Z,96040.38
2023-02-14T15:54:00.643Z,96014.59
2023-02-14T15:56:46.756Z,96068.06
2023-02-14T15:59:23.548Z,96075.78
2023-02-14T16:01:59.682Z,96079.63
2023-02-14T16:04:29.009Z,96029.56
2023-02-14T16:07:22.975Z,96073.84
2023-02-14T16:09:51.767Z,96018.41
2023-02-14T16:12:36.255Z,96036.06
2023-02-14T16:15:15.188Z,96076.53
2023-02-14T16:17:44.096Z,96067.28
2023-02-14T16:20:28.649Z,96089.63
2023-02-14T16:23:15.269Z,96072.31
2023-02-14T16:25:42.030Z,95996.06
2023-02-14T16:28:08.861Z,96077.25
2023-02-14T16:30:37.405Z,96059.94
2023-02-14T16:33:05.743Z,96025.66
2023-02-14T16:35:32.748Z,96086.50
2023-02-14T16:37:59.386Z,96055.31
2023-02-14T16:40:28.763Z,96042.63
2023-02-14T16:42:55.456Z,96057.63
2023-02-14T16:45:22.197Z,96082.28
2023-02-14T16:47:49.601Z,96076.47
2023-02-14T16:50:17.706Z,96079.16
2023-02-14T16:52:49.037Z,96091.88
2023-02-14T16:55:17.332Z,96078.00
2023-02-14T16:57:46.424Z,96098.41
2023-02-14T17:00:14.090Z,96080.69
2023-02-14T17:02:43.875Z,96081.41
2023-02-14T17:05:11.374Z,96068.00
2023-02-14T17:07:40.979Z,96076.03
2023-02-14T17:10:18.083Z,96094.16
2023-02-14T17:12:47.369Z,96074.88
2023-02-14T17:15:18.290Z,96108.78
2023-02-14T17:17:47.176Z,96096.09
2023-02-14T17:20:14.760Z,96104.94
2023-02-14T17:22:44.686Z,96106.88
2023-02-14T17:25:11.642Z,96093.41
2023-02-14T17:27:38.951Z,96108.81
2023-02-14T17:30:06.178Z,96093.41
2023-02-14T17:32:33.100Z,96103.41
2023-02-14T17:35:01.071Z,96117.25
2023-02-14T17:37:28.883Z,96112.63
2023-02-14T17:39:55.481Z,96110.72
2023-02-14T17:42:22.304Z,96101.50
2023-02-14T17:44:48.950Z,96102.25
2023-02-14T17:47:18.122Z,96117.66
2023-02-14T17:49:47.448Z,96113.44
2023-02-14T17:52:15.743Z,96123.81
2023-02-14T17:54:42.929Z,96134.59
2023-02-14T17:57:09.588Z,96115.34
2023-02-14T17:59:36.751Z,96137.66
2023-02-14T18:02:03.907Z,96141.13
2023-02-14T18:04:30.587Z,96107.59
2023-02-14T18:06:57.206Z,96134.94
2023-02-14T18:09:25.734Z,96127.22
2023-02-14T18:11:52.440Z,96103.75
2023-02-14T18:14:19.020Z,96132.66
2023-02-14T18:16:45.934Z,96122.28
2023-02-14T18:19:15.871Z,96126.91
2023-02-14T18:21:44.775Z,96134.59
2023-02-14T18:24:12.452Z,96120.34
2023-02-14T18:26:41.241Z,96134.56
2023-02-14T18:29:08.828Z,96114.50
2023-02-14T18:31:41.441Z,96136.09
2023-02-14T18:34:08.758Z,96138.41
2023-02-14T18:36:37.339Z,96116.84
2023-02-14T18:39:04.477Z,96131.06
2023-02-14T18:41:31.534Z,96132.25
2023-02-14T18:43:58.774Z,96100.66
2023-02-14T18:46:27.884Z,96127.66
2023-02-14T18:48:56.667Z,96137.66
2023-02-14T18:51:34.769Z,96132.25
2023-02-14T18:54:03.132Z,96084.84
2023-02-14T18:56:32.682Z,96131.84
2023-02-14T18:59:03.717Z,96147.59
2023-02-14T19:01:33.585Z,96126.81
2023-02-14T19:04:01.391Z,96134.13
2023-02-14T19:06:30.512Z,96143.75
2023-02-14T19:08:58.048Z,96142.59
2023-02-14T19:11:28.755Z,96142.94
2023-02-14T19:13:58.373Z,96126.00
2023-02-14T19:16:31.374Z,96148.72
2023-02-14T19:18:59.159Z,96144.88
2023-02-14T19:21:29.485Z,96132.19
2023-02-14T19:23:57.754Z,96139.06
2023-02-14T19:26:27.562Z,96147.19
2023-02-14T19:28:59.656Z,96120.97
2023-02-14T19:31:27.110Z,96151.78
2023-02-14T19:33:54.471Z,96137.97
2023-02-14T19:36:23.281Z,96134.81
2023-02-14T19:38:52.498Z,96147.56
2023-02-14T19:41:22.853Z,96152.94
2023-02-14T19:43:51.368Z,96142.88
2023-02-14T19:46:21.723Z,96135.53
2023-02-14T19:48:48.818Z,96154.38
2023-02-14T19:51:27.762Z,96155.59
2023-02-14T19:53:56.104Z,96157.50
2023-02-14T19:56:25.838Z,96150.56
2023-02-14T19:58:53.336Z,96143.22
2023-02-14T20:01:33.315Z,96152.81
2023-02-14T20:04:00.732Z,96161.66
2023-02-14T20:06:29.384Z,96151.25
2023-02-14T20:08:56.065Z,96151.94
2023-02-14T20:11:31.427Z,96159.25
2023-02-14T20:13:59.418Z,96165.00
2023-02-14T20:16:28.185Z,96149.53
2023-02-14T20:18:55.037Z,96160.00
2023-02-14T20:21:25.626Z,96149.53
2023-02-14T20:23:52.463Z,96154.97
2023-02-14T20:26:19.679Z,96141.00
2023-02-14T20:28:48.781Z,96156.03
2023-02-14T20:31:19.454Z,96141.00
2023-02-14T20:33:47.690Z,96144.84
2023-02-14T20:36:14.444Z,96129.81
2023-02-14T20:38:41.149Z,96112.47
2023-02-14T20:41:10.762Z,96120.06
2023-02-14T20:43:38.432Z,96139.00
2023-02-14T20:46:06.790Z,96151.69
2023-02-14T20:48:34.721Z,96155.47
2023-02-14T20:51:27.788Z,96156.22
2023-02-14T20:53:54.560Z,96145.41
2023-02-14T20:56:23.422Z,96133.03
2023-02-14T20:58:50.479Z,96152.38
2023-02-14T21:01:20.094Z,96142.34
2023-02-14T21:03:50.860Z,96133.84
2023-02-14T21:06:19.621Z,96150.75
2023-02-14T21:08:46.719Z,96129.84
2023-02-14T21:11:16.253Z,96136.03
2023-02-14T21:13:42.987Z,96132.91
2023-02-14T21:16:17.304Z,96161.03
2023-02-14T21:18:48.663Z,96139.03
2023-02-14T21:21:21.736Z,96147.16
2023-02-14T21:23:49.905Z,96162.50
2023-02-14T21:26:17.375Z,96162.06
2023-02-14T21:28:44.186Z,96149.31
2023-02-14T21:31:14.639Z,96164.75
2023-02-14T21:33:41.310Z,96168.63
2023-02-14T21:36:08.098Z,96167.50
2023-02-14T21:38:35.576Z,96161.66
2023-02-14T21:41:08.119Z,96148.53
2023-02-14T21:43:39.898Z,96149.19
2023-02-14T21:46:09.587Z,96158.16
2023-02-14T21:48:55.244Z,96153.44
2023-02-14T21:51:22.279Z,96158.59
2023-02-14T21:53:49.439Z,96157.75
2023-02-14T21:56:19.834Z,96165.88
2023-02-14T21:58:48.218Z,96145.91
2023-02-14T22:01:16.783Z,96138.53
2023-02-14T22:03:43.863Z,96145.88
2023-02-14T22:06:10.714Z,96174.41
2023-02-14T22:08:37.442Z,96167.09
2023-02-14T22:11:08.727Z,96174.41
2023-02-14T22:13:36.064Z,96177.56
2023-02-14T22:16:07.019Z,96168.66
2023-02-14T22:18:34.268Z,96183.69
2023-02-14T22:21:09.629Z,96188.63
2023-02-14T22:23:37.300Z,96189.44
2023-02-14T22:26:28.392Z,96202.88
2023-02-14T22:28:57.305Z,96198.34
2023-02-14T22:31:25.853Z,96202.63
2023-02-14T22:33:53.074Z,96197.22
2023-02-14T22:36:20.160Z,96185.34
2023-02-14T22:38:46.803Z,96192.69
2023-02-14T22:41:16.563Z,96186.56
2023-02-14T22:43:43.929Z,96169.66
2023-02-14T22:46:22.174Z,96186.19
2023-02-14T22:48:49.949Z,96201.53
2023-02-14T22:51:25.996Z,96175.63
2023-02-14T22:53:55.404Z,96195.78
2023-02-14T22:56:25.532Z,96196.59
2023-02-14T22:59:00.999Z,96208.03
2023-02-14T23:01:28.406Z,96214.50
2023-02-14T23:03:57.581Z,96182.47
2023-02-14T23:06:25.783Z,96198.38
2023-02-14T23:08:54.449Z,96189.44
2023-02-14T23:11:27.918Z,96194.84
2023-02-14T23:14:13.632Z,96201.34
2023-02-14T23:16:59.882Z,96183.22
2023-02-14T23:19:48.066Z,96146.03
2023-02-14T23:22:21.222Z,96178.91
2023-02-14T23:24:52.732Z,96166.38
2023-02-14T23:27:21.698Z,96196.47
2023-02-14T23:29:48.391Z,96194.94
2023-02-14T23:32:15.118Z,96172.66
2023-02-14T23:34:44.231Z,96149.88
2023-02-14T23:37:12.060Z,96178.81
2023-02-14T23:39:38.653Z,96189.16
2023-02-14T23:42:14.958Z,96179.63
2023-02-14T23:44:45.866Z,96192.66
2023-02-14T23:47:14.520Z,96170.31
2023-02-14T23:49:41.960Z,96181.88
2023-02-14T23:52:11.115Z,96179.97
2023-02-14T23:54:38.837Z,96187.63
2023-02-14T23:57:06.205Z,96167.63
2023-02-14T23:59:33.039Z,96177.97
